sensor_id;sensor_type;location;lat;lon;timestamp;P1;durP1;ratioP1;P2;durP2;ratioP2
20861;SDS011;10591;52.532;13.348;2024-01-10T00:01:33;53.97;;;27.27;;
20861;SDS011;10591;52.532;13.348;2024-01-10T00:04:04;52.23;;;27.83;;
20861;SDS011;10591;52.532;13.348;2024-01-10T00:06:34;53.77;;;27.87;;
20861;SDS011;10591;52.532;13.348;2024-01-10T00:09:05;58.50;;;28.60;;
20861;SDS011;10591;52.532;13.348;2024-01-10T00:11:36;55.90;;;28.00;;
20861;SDS011;10591;52.532;13.348;2024-01-10T00:14:07;63.60;;;29.50;;
20861;SDS011;10591;52.532;13.348;2024-01-10T00:16:38;56.50;;;29.13;;
20861;SDS011;10591;52.532;13.348;2024-01-10T00:19:09;56.17;;;28.03;;
20861;SDS011;10591;52.532;13.348;2024-01-10T00:21:39;58.77;;;30.20;;
20861;SDS011;10591;52.532;13.348;2024-01-10T00:24:10;60.83;;;28.33;;
20861;SDS011;10591;52.532;13.348;2024-01-10T00:26:40;58.17;;;29.47;;
20861;SDS011;10591;52.532;13.348;2024-01-10T00:29:11;57.23;;;29.00;;
20861;SDS011;10591;52.532;13.348;2024-01-10T00:31:42;53.27;;;27.50;;
20861;SDS011;10591;52.532;13.348;2024-01-10T00:34:13;58.50;;;28.70;;
20861;SDS011;10591;52.532;13.348;2024-01-10T00:36:43;61.60;;;29.20;;
20861;SDS011;10591;52.532;13.348;2024-01-10T00:39:14;55.13;;;28.53;;
20861;SDS011;10591;52.532;13.348;2024-01-10T00:41:44;64.27;;;28.17;;
20861;SDS011;10591;52.532;13.348;2024-01-10T00:44:15;56.60;;;28.40;;
20861;SDS011;10591;52.532;13.348;2024-01-10T00:46:45;60.83;;;29.47;;
20861;SDS011;10591;52.532;13.348;2024-01-10T00:49:16;59.73;;;29.07;;
20861;SDS011;10591;52.532;13.348;2024-01-10T00:51:46;57.33;;;28.17;;
20861;SDS011;10591;52.532;13.348;2024-01-10T00:54:20;58.23;;;28.13;;
20861;SDS011;10591;52.532;13.348;2024-01-10T00:56:51;60.47;;;29.17;;
20861;SDS011;10591;52.532;13.348;2024-01-10T00:59:22;57.57;;;28.37;;
20861;SDS011;10591;52.532;13.348;2024-01-10T01:01:52;59.00;;;29.93;;
20861;SDS011;10591;52.532;13.348;2024-01-10T01:04:23;57.80;;;28.63;;
20861;SDS011;10591;52.532;13.348;2024-01-10T01:06:53;57.70;;;29.27;;
20861;SDS011;10591;52.532;13.348;2024-01-10T01:09:24;56.30;;;28.43;;
20861;SDS011;10591;52.532;13.348;2024-01-10T01:11:55;55.63;;;27.20;;
20861;SDS011;10591;52.532;13.348;2024-01-10T01:14:25;58.10;;;27.70;;
20861;SDS011;10591;52.532;13.348;2024-01-10T01:16:56;55.43;;;27.77;;
20861;SDS011;10591;52.532;13.348;2024-01-10T01:19:27;57.17;;;29.23;;
20861;SDS011;10591;52.532;13.348;2024-01-10T01:21:57;58.63;;;29.73;;
20861;SDS011;10591;52.532;13.348;2024-01-10T01:24:28;52.90;;;27.73;;
20861;SDS011;10591;52.532;13.348;2024-01-10T01:26:59;51.33;;;27.10;;
20861;SDS011;10591;52.532;13.348;2024-01-10T01:29:31;53.90;;;27.40;;
20861;SDS011;10591;52.532;13.348;2024-01-10T01:32:01;54.07;;;27.40;;
20861;SDS011;10591;52.532;13.348;2024-01-10T01:34:32;52.63;;;27.30;;
20861;SDS011;10591;52.532;13.348;2024-01-10T01:37:03;54.57;;;26.57;;
20861;SDS011;10591;52.532;13.348;2024-01-10T01:39:33;52.00;;;27.47;;
20861;SDS011;10591;52.532;13.348;2024-01-10T01:42:04;56.57;;;27.07;;
20861;SDS011;10591;52.532;13.348;2024-01-10T01:44:35;49.27;;;26.13;;
20861;SDS011;10591;52.532;13.348;2024-01-10T01:47:05;57.97;;;27.33;;
20861;SDS011;10591;52.532;13.348;2024-01-10T01:49:37;52.90;;;26.87;;
20861;SDS011;10591;52.532;13.348;2024-01-10T01:52:08;55.37;;;26.50;;
20861;SDS011;10591;52.532;13.348;2024-01-10T01:54:40;49.73;;;26.23;;
20861;SDS011;10591;52.532;13.348;2024-01-10T01:57:11;50.17;;;26.87;;
20861;SDS011;10591;52.532;13.348;2024-01-10T01:59:42;52.53;;;25.97;;
20861;SDS011;10591;52.532;13.348;2024-01-10T02:02:14;51.17;;;25.73;;
20861;SDS011;10591;52.532;13.348;2024-01-10T02:04:47;49.10;;;25.53;;
20861;SDS011;10591;52.532;13.348;2024-01-10T02:07:19;49.30;;;25.77;;
20861;SDS011;10591;52.532;13.348;2024-01-10T02:09:50;49.37;;;25.77;;
20861;SDS011;10591;52.532;13.348;2024-01-10T02:12:20;48.63;;;24.40;;
20861;SDS011;10591;52.532;13.348;2024-01-10T02:14:51;51.30;;;25.63;;
20861;SDS011;10591;52.532;13.348;2024-01-10T02:17:22;54.50;;;25.83;;
20861;SDS011;10591;52.532;13.348;2024-01-10T02:22:43;49.17;;;25.53;;
20861;SDS011;10591;52.532;13.348;2024-01-10T02:25:14;49.30;;;25.77;;
20861;SDS011;10591;52.532;13.348;2024-01-10T02:27:45;50.57;;;25.23;;
20861;SDS011;10591;52.532;13.348;2024-01-10T02:30:16;48.57;;;25.20;;
20861;SDS011;10591;52.532;13.348;2024-01-10T02:32:46;50.90;;;25.57;;
20861;SDS011;10591;52.532;13.348;2024-01-10T02:35:17;51.00;;;24.47;;
20861;SDS011;10591;52.532;13.348;2024-01-10T02:37:48;45.33;;;23.40;;
20861;SDS011;10591;52.532;13.348;2024-01-10T02:40:23;44.43;;;24.27;;
20861;SDS011;10591;52.532;13.348;2024-01-10T02:42:54;46.13;;;24.03;;
20861;SDS011;10591;52.532;13.348;2024-01-10T02:45:24;50.70;;;26.30;;
20861;SDS011;10591;52.532;13.348;2024-01-10T02:47:56;50.77;;;26.37;;
20861;SDS011;10591;52.532;13.348;2024-01-10T02:50:27;52.07;;;26.50;;
20861;SDS011;10591;52.532;13.348;2024-01-10T02:52:59;50.37;;;26.17;;
20861;SDS011;10591;52.532;13.348;2024-01-10T02:55:29;50.73;;;26.37;;
20861;SDS011;10591;52.532;13.348;2024-01-10T02:58:00;47.47;;;26.63;;
20861;SDS011;10591;52.532;13.348;2024-01-10T03:00:32;46.63;;;24.83;;
20861;SDS011;10591;52.532;13.348;2024-01-10T03:03:03;50.13;;;25.07;;
20861;SDS011;10591;52.532;13.348;2024-01-10T03:05:33;50.93;;;26.30;;
20861;SDS011;10591;52.532;13.348;2024-01-10T03:08:04;51.23;;;26.53;;
20861;SDS011;10591;52.532;13.348;2024-01-10T03:10:36;50.37;;;25.33;;
20861;SDS011;10591;52.532;13.348;2024-01-10T03:13:06;52.37;;;26.10;;
20861;SDS011;10591;52.532;13.348;2024-01-10T03:15:37;52.33;;;26.43;;
20861;SDS011;10591;52.532;13.348;2024-01-10T03:18:07;51.27;;;27.30;;
20861;SDS011;10591;52.532;13.348;2024-01-10T03:20:38;52.57;;;26.73;;
20861;SDS011;10591;52.532;13.348;2024-01-10T03:23:08;52.53;;;27.67;;
20861;SDS011;10591;52.532;13.348;2024-01-10T03:25:39;60.60;;;28.47;;
20861;SDS011;10591;52.532;13.348;2024-01-10T03:28:10;55.37;;;27.03;;
20861;SDS011;10591;52.532;13.348;2024-01-10T03:30:40;51.57;;;27.20;;
20861;SDS011;10591;52.532;13.348;2024-01-10T03:33:11;59.00;;;28.57;;
20861;SDS011;10591;52.532;13.348;2024-01-10T03:35:43;57.07;;;29.07;;
20861;SDS011;10591;52.532;13.348;2024-01-10T03:38:14;52.80;;;28.63;;
20861;SDS011;10591;52.532;13.348;2024-01-10T03:40:45;55.47;;;28.20;;
20861;SDS011;10591;52.532;13.348;2024-01-10T03:43:15;53.40;;;28.33;;
20861;SDS011;10591;52.532;13.348;2024-01-10T03:45:46;56.73;;;28.50;;
20861;SDS011;10591;52.532;13.348;2024-01-10T03:48:17;56.53;;;27.27;;
20861;SDS011;10591;52.532;13.348;2024-01-10T03:50:47;57.90;;;27.80;;
20861;SDS011;10591;52.532;13.348;2024-01-10T03:53:18;54.30;;;28.07;;
20861;SDS011;10591;52.532;13.348;2024-01-10T03:55:48;56.63;;;27.40;;
20861;SDS011;10591;52.532;13.348;2024-01-10T03:58:19;56.67;;;29.20;;
20861;SDS011;10591;52.532;13.348;2024-01-10T04:00:51;55.77;;;28.50;;
20861;SDS011;10591;52.532;13.348;2024-01-10T04:03:21;53.90;;;28.47;;
20861;SDS011;10591;52.532;13.348;2024-01-10T04:05:52;56.83;;;27.87;;
20861;SDS011;10591;52.532;13.348;2024-01-10T04:08:24;56.83;;;27.47;;
20861;SDS011;10591;52.532;13.348;2024-01-10T04:10:54;54.60;;;28.00;;
20861;SDS011;10591;52.532;13.348;2024-01-10T04:13:25;55.70;;;28.87;;
20861;SDS011;10591;52.532;13.348;2024-01-10T04:15:55;54.20;;;27.80;;
20861;SDS011;10591;52.532;13.348;2024-01-10T04:18:26;58.53;;;29.00;;
20861;SDS011;10591;52.532;13.348;2024-01-10T04:20:58;57.43;;;27.87;;
20861;SDS011;10591;52.532;13.348;2024-01-10T04:23:30;53.00;;;26.60;;
20861;SDS011;10591;52.532;13.348;2024-01-10T04:26:02;54.53;;;26.27;;
20861;SDS011;10591;52.532;13.348;2024-01-10T04:28:35;54.47;;;27.27;;
20861;SDS011;10591;52.532;13.348;2024-01-10T04:31:07;53.60;;;27.07;;
20861;SDS011;10591;52.532;13.348;2024-01-10T04:33:37;53.10;;;27.07;;
20861;SDS011;10591;52.532;13.348;2024-01-10T04:36:08;51.20;;;25.43;;
20861;SDS011;10591;52.532;13.348;2024-01-10T04:38:39;51.67;;;26.67;;
20861;SDS011;10591;52.532;13.348;2024-01-10T04:41:09;53.90;;;27.37;;
20861;SDS011;10591;52.532;13.348;2024-01-10T04:43:40;53.60;;;27.33;;
20861;SDS011;10591;52.532;13.348;2024-01-10T04:46:10;50.97;;;26.40;;
20861;SDS011;10591;52.532;13.348;2024-01-10T04:48:41;48.03;;;26.87;;
20861;SDS011;10591;52.532;13.348;2024-01-10T04:51:12;51.80;;;25.57;;
20861;SDS011;10591;52.532;13.348;2024-01-10T04:53:43;51.10;;;25.50;;
20861;SDS011;10591;52.532;13.348;2024-01-10T04:56:14;54.93;;;24.37;;
20861;SDS011;10591;52.532;13.348;2024-01-10T04:58:45;48.40;;;26.13;;
20861;SDS011;10591;52.532;13.348;2024-01-10T05:01:15;45.73;;;25.03;;
20861;SDS011;10591;52.532;13.348;2024-01-10T05:03:46;49.80;;;25.67;;
20861;SDS011;10591;52.532;13.348;2024-01-10T05:06:17;53.57;;;26.70;;
20861;SDS011;10591;52.532;13.348;2024-01-10T05:08:47;53.13;;;25.97;;
20861;SDS011;10591;52.532;13.348;2024-01-10T05:11:18;52.90;;;27.10;;
20861;SDS011;10591;52.532;13.348;2024-01-10T05:13:49;49.20;;;25.63;;
20861;SDS011;10591;52.532;13.348;2024-01-10T05:16:20;52.27;;;26.23;;
20861;SDS011;10591;52.532;13.348;2024-01-10T05:18:51;55.37;;;27.03;;
20861;SDS011;10591;52.532;13.348;2024-01-10T05:21:22;50.07;;;25.87;;
20861;SDS011;10591;52.532;13.348;2024-01-10T05:23:55;51.13;;;26.00;;
20861;SDS011;10591;52.532;13.348;2024-01-10T05:26:27;50.97;;;26.53;;
20861;SDS011;10591;52.532;13.348;2024-01-10T05:28:58;50.23;;;25.40;;
20861;SDS011;10591;52.532;13.348;2024-01-10T05:31:28;53.07;;;26.87;;
20861;SDS011;10591;52.532;13.348;2024-01-10T05:33:59;46.20;;;25.97;;
20861;SDS011;10591;52.532;13.348;2024-01-10T05:36:30;49.00;;;25.13;;
20861;SDS011;10591;52.532;13.348;2024-01-10T05:39:02;54.97;;;25.30;;
20861;SDS011;10591;52.532;13.348;2024-01-10T05:41:33;47.20;;;24.87;;
20861;SDS011;10591;52.532;13.348;2024-01-10T05:44:05;51.40;;;25.00;;
20861;SDS011;10591;52.532;13.348;2024-01-10T05:46:35;52.43;;;26.07;;
20861;SDS011;10591;52.532;13.348;2024-01-10T05:49:06;56.63;;;25.93;;
20861;SDS011;10591;52.532;13.348;2024-01-10T05:51:37;46.57;;;25.40;;
20861;SDS011;10591;52.532;13.348;2024-01-10T05:54:08;52.50;;;25.60;;
20861;SDS011;10591;52.532;13.348;2024-01-10T05:56:38;51.53;;;25.80;;
20861;SDS011;10591;52.532;13.348;2024-01-10T05:59:09;50.70;;;25.77;;
20861;SDS011;10591;52.532;13.348;2024-01-10T06:01:40;57.60;;;26.47;;
20861;SDS011;10591;52.532;13.348;2024-01-10T06:04:10;54.93;;;25.70;;
20861;SDS011;10591;52.532;13.348;2024-01-10T06:06:41;51.90;;;26.50;;
20861;SDS011;10591;52.532;13.348;2024-01-10T06:09:11;53.43;;;25.93;;
20861;SDS011;10591;52.532;13.348;2024-01-10T06:11:42;49.30;;;25.10;;
20861;SDS011;10591;52.532;13.348;2024-01-10T06:14:13;53.67;;;26.77;;
20861;SDS011;10591;52.532;13.348;2024-01-10T06:16:43;48.00;;;24.13;;
20861;SDS011;10591;52.532;13.348;2024-01-10T06:19:14;51.53;;;27.67;;
20861;SDS011;10591;52.532;13.348;2024-01-10T06:21:45;53.03;;;26.37;;
20861;SDS011;10591;52.532;13.348;2024-01-10T06:24:17;55.50;;;26.17;;
20861;SDS011;10591;52.532;13.348;2024-01-10T06:26:49;55.83;;;25.83;;
20861;SDS011;10591;52.532;13.348;2024-01-10T06:29:22;52.23;;;26.23;;
20861;SDS011;10591;52.532;13.348;2024-01-10T06:31:52;49.07;;;25.30;;
20861;SDS011;10591;52.532;13.348;2024-01-10T06:34:26;51.00;;;25.90;;
20861;SDS011;10591;52.532;13.348;2024-01-10T06:36:57;48.67;;;24.23;;
20861;SDS011;10591;52.532;13.348;2024-01-10T06:39:28;49.43;;;25.40;;
20861;SDS011;10591;52.532;13.348;2024-01-10T06:41:58;52.97;;;25.13;;
20861;SDS011;10591;52.532;13.348;2024-01-10T06:44:29;48.00;;;24.87;;
20861;SDS011;10591;52.532;13.348;2024-01-10T06:47:00;53.40;;;26.23;;
20861;SDS011;10591;52.532;13.348;2024-01-10T06:49:32;50.73;;;24.60;;
20861;SDS011;10591;52.532;13.348;2024-01-10T06:52:03;44.77;;;24.40;;
20861;SDS011;10591;52.532;13.348;2024-01-10T06:54:35;48.73;;;25.20;;
20861;SDS011;10591;52.532;13.348;2024-01-10T06:57:06;47.63;;;25.30;;
20861;SDS011;10591;52.532;13.348;2024-01-10T06:59:36;55.60;;;28.63;;
20861;SDS011;10591;52.532;13.348;2024-01-10T07:02:07;50.23;;;24.40;;
20861;SDS011;10591;52.532;13.348;2024-01-10T07:04:37;55.03;;;27.37;;
20861;SDS011;10591;52.532;13.348;2024-01-10T07:07:10;50.20;;;25.83;;
20861;SDS011;10591;52.532;13.348;2024-01-10T07:09:43;52.13;;;25.77;;
20861;SDS011;10591;52.532;13.348;2024-01-10T07:12:13;50.93;;;26.57;;
20861;SDS011;10591;52.532;13.348;2024-01-10T07:14:45;48.70;;;25.13;;
20861;SDS011;10591;52.532;13.348;2024-01-10T07:17:17;47.47;;;24.47;;
20861;SDS011;10591;52.532;13.348;2024-01-10T07:19:48;51.27;;;26.43;;
20861;SDS011;10591;52.532;13.348;2024-01-10T07:22:18;53.20;;;26.20;;
20861;SDS011;10591;52.532;13.348;2024-01-10T07:24:49;57.33;;;27.07;;
20861;SDS011;10591;52.532;13.348;2024-01-10T07:27:20;50.27;;;25.57;;
20861;SDS011;10591;52.532;13.348;2024-01-10T07:29:52;50.67;;;24.93;;
20861;SDS011;10591;52.532;13.348;2024-01-10T07:32:26;44.67;;;23.20;;
20861;SDS011;10591;52.532;13.348;2024-01-10T07:34:57;48.33;;;24.33;;
20861;SDS011;10591;52.532;13.348;2024-01-10T07:37:27;50.30;;;24.27;;
20861;SDS011;10591;52.532;13.348;2024-01-10T07:39:58;50.73;;;25.53;;
20861;SDS011;10591;52.532;13.348;2024-01-10T07:42:28;49.30;;;24.20;;
20861;SDS011;10591;52.532;13.348;2024-01-10T07:45:00;51.70;;;26.70;;
20861;SDS011;10591;52.532;13.348;2024-01-10T07:47:34;49.03;;;25.23;;
20861;SDS011;10591;52.532;13.348;2024-01-10T07:50:10;53.90;;;26.27;;
20861;SDS011;10591;52.532;13.348;2024-01-10T07:52:42;53.03;;;26.73;;
20861;SDS011;10591;52.532;13.348;2024-01-10T07:55:15;47.80;;;25.43;;
20861;SDS011;10591;52.532;13.348;2024-01-10T07:57:45;50.87;;;25.73;;
20861;SDS011;10591;52.532;13.348;2024-01-10T08:00:16;52.90;;;27.00;;
20861;SDS011;10591;52.532;13.348;2024-01-10T08:02:49;50.43;;;25.57;;
20861;SDS011;10591;52.532;13.348;2024-01-10T08:05:20;48.40;;;25.47;;
20861;SDS011;10591;52.532;13.348;2024-01-10T08:07:53;48.23;;;24.50;;
20861;SDS011;10591;52.532;13.348;2024-01-10T08:10:25;52.03;;;26.30;;
20861;SDS011;10591;52.532;13.348;2024-01-10T08:12:56;54.37;;;26.87;;
20861;SDS011;10591;52.532;13.348;2024-01-10T08:15:26;48.17;;;25.13;;
20861;SDS011;10591;52.532;13.348;2024-01-10T08:17:59;56.17;;;28.87;;
20861;SDS011;10591;52.532;13.348;2024-01-10T08:20:32;63.00;;;27.57;;
20861;SDS011;10591;52.532;13.348;2024-01-10T08:23:03;56.57;;;27.33;;
20861;SDS011;10591;52.532;13.348;2024-01-10T08:25:33;52.37;;;25.53;;
20861;SDS011;10591;52.532;13.348;2024-01-10T08:28:07;53.43;;;27.60;;
20861;SDS011;10591;52.532;13.348;2024-01-10T08:30:39;52.60;;;26.70;;
20861;SDS011;10591;52.532;13.348;2024-01-10T08:33:10;57.20;;;26.57;;
20861;SDS011;10591;52.532;13.348;2024-01-10T08:35:41;48.90;;;25.83;;
20861;SDS011;10591;52.532;13.348;2024-01-10T08:38:12;47.90;;;25.23;;
20861;SDS011;10591;52.532;13.348;2024-01-10T08:40:43;51.00;;;24.93;;
20861;SDS011;10591;52.532;13.348;2024-01-10T08:43:14;54.57;;;25.43;;
20861;SDS011;10591;52.532;13.348;2024-01-10T08:45:44;45.10;;;24.83;;
20861;SDS011;10591;52.532;13.348;2024-01-10T08:48:16;48.60;;;25.57;;
20861;SDS011;10591;52.532;13.348;2024-01-10T08:50:47;50.63;;;26.00;;
20861;SDS011;10591;52.532;13.348;2024-01-10T08:53:17;48.50;;;24.77;;
20861;SDS011;10591;52.532;13.348;2024-01-10T08:55:48;51.77;;;26.00;;
20861;SDS011;10591;52.532;13.348;2024-01-10T08:58:19;62.47;;;29.23;;
20861;SDS011;10591;52.532;13.348;2024-01-10T09:00:49;58.67;;;28.40;;
20861;SDS011;10591;52.532;13.348;2024-01-10T09:03:21;51.77;;;29.10;;
20861;SDS011;10591;52.532;13.348;2024-01-10T09:05:53;52.90;;;28.10;;
20861;SDS011;10591;52.532;13.348;2024-01-10T09:08:25;51.20;;;26.97;;
20861;SDS011;10591;52.532;13.348;2024-01-10T09:10:57;49.60;;;26.20;;
20861;SDS011;10591;52.532;13.348;2024-01-10T09:13:28;50.57;;;26.63;;
20861;SDS011;10591;52.532;13.348;2024-01-10T09:16:01;46.90;;;24.73;;
20861;SDS011;10591;52.532;13.348;2024-01-10T09:18:32;46.27;;;26.50;;
20861;SDS011;10591;52.532;13.348;2024-01-10T09:21:06;50.70;;;25.73;;
20861;SDS011;10591;52.532;13.348;2024-01-10T09:26:28;48.43;;;25.43;;
20861;SDS011;10591;52.532;13.348;2024-01-10T09:28:59;45.40;;;24.83;;
20861;SDS011;10591;52.532;13.348;2024-01-10T09:31:30;50.33;;;25.50;;
20861;SDS011;10591;52.532;13.348;2024-01-10T09:34:01;49.57;;;26.17;;
20861;SDS011;10591;52.532;13.348;2024-01-10T09:36:32;49.83;;;24.93;;
20861;SDS011;10591;52.532;13.348;2024-01-10T09:39:03;48.57;;;25.20;;
20861;SDS011;10591;52.532;13.348;2024-01-10T09:41:35;56.43;;;26.47;;
20861;SDS011;10591;52.532;13.348;2024-01-10T09:44:08;52.77;;;26.17;;
20861;SDS011;10591;52.532;13.348;2024-01-10T09:46:41;52.57;;;26.30;;
20861;SDS011;10591;52.532;13.348;2024-01-10T09:49:15;48.13;;;26.67;;
20861;SDS011;10591;52.532;13.348;2024-01-10T09:51:46;48.77;;;26.43;;
20861;SDS011;10591;52.532;13.348;2024-01-10T09:54:18;54.33;;;28.33;;
20861;SDS011;10591;52.532;13.348;2024-01-10T09:56:50;48.33;;;26.87;;
20861;SDS011;10591;52.532;13.348;2024-01-10T09:59:22;54.33;;;29.03;;
20861;SDS011;10591;52.532;13.348;2024-01-10T10:01:55;55.50;;;29.60;;
20861;SDS011;10591;52.532;13.348;2024-01-10T10:04:30;59.50;;;28.03;;
20861;SDS011;10591;52.532;13.348;2024-01-10T10:07:01;54.37;;;27.70;;
20861;SDS011;10591;52.532;13.348;2024-01-10T10:09:33;54.30;;;29.87;;
20861;SDS011;10591;52.532;13.348;2024-01-10T10:12:05;56.00;;;29.53;;
20861;SDS011;10591;52.532;13.348;2024-01-10T10:14:36;52.50;;;27.93;;
20861;SDS011;10591;52.532;13.348;2024-01-10T10:17:15;55.30;;;28.03;;
20861;SDS011;10591;52.532;13.348;2024-01-10T10:19:47;57.30;;;30.57;;
20861;SDS011;10591;52.532;13.348;2024-01-10T10:22:17;61.43;;;30.80;;
20861;SDS011;10591;52.532;13.348;2024-01-10T10:24:48;57.53;;;29.70;;
20861;SDS011;10591;52.532;13.348;2024-01-10T10:27:19;69.33;;;32.93;;
20861;SDS011;10591;52.532;13.348;2024-01-10T10:29:50;58.50;;;30.40;;
20861;SDS011;10591;52.532;13.348;2024-01-10T10:32:22;56.17;;;29.30;;
20861;SDS011;10591;52.532;13.348;2024-01-10T10:34:52;56.37;;;29.40;;
20861;SDS011;10591;52.532;13.348;2024-01-10T10:37:26;53.93;;;28.90;;
20861;SDS011;10591;52.532;13.348;2024-01-10T10:39:57;59.93;;;29.27;;
20861;SDS011;10591;52.532;13.348;2024-01-10T10:42:28;54.93;;;29.60;;
20861;SDS011;10591;52.532;13.348;2024-01-10T10:45:02;53.60;;;28.50;;
20861;SDS011;10591;52.532;13.348;2024-01-10T10:47:35;56.30;;;29.00;;
20861;SDS011;10591;52.532;13.348;2024-01-10T10:50:07;48.30;;;27.07;;
20861;SDS011;10591;52.532;13.348;2024-01-10T10:52:44;52.43;;;27.10;;
20861;SDS011;10591;52.532;13.348;2024-01-10T10:55:18;49.50;;;25.23;;
20861;SDS011;10591;52.532;13.348;2024-01-10T10:57:51;46.30;;;25.03;;
20861;SDS011;10591;52.532;13.348;2024-01-10T11:00:25;48.00;;;24.53;;
20861;SDS011;10591;52.532;13.348;2024-01-10T11:02:57;51.03;;;24.83;;
20861;SDS011;10591;52.532;13.348;2024-01-10T11:05:28;44.23;;;24.57;;
20861;SDS011;10591;52.532;13.348;2024-01-10T11:08:01;49.67;;;24.50;;
20861;SDS011;10591;52.532;13.348;2024-01-10T11:10:34;45.60;;;23.77;;
20861;SDS011;10591;52.532;13.348;2024-01-10T11:13:22;40.90;;;21.83;;
20861;SDS011;10591;52.532;13.348;2024-01-10T11:16:13;35.30;;;19.03;;
20861;SDS011;10591;52.532;13.348;2024-01-10T11:21:22;38.73;;;18.83;;
20861;SDS011;10591;52.532;13.348;2024-01-10T11:24:04;35.53;;;20.03;;
20861;SDS011;10591;52.532;13.348;2024-01-10T11:26:40;35.70;;;19.33;;
20861;SDS011;10591;52.532;13.348;2024-01-10T11:29:10;34.30;;;19.60;;
20861;SDS011;10591;52.532;13.348;2024-01-10T11:31:41;33.43;;;19.70;;
20861;SDS011;10591;52.532;13.348;2024-01-10T11:34:16;33.97;;;19.23;;
20861;SDS011;10591;52.532;13.348;2024-01-10T11:39:40;35.20;;;19.13;;
20861;SDS011;10591;52.532;13.348;2024-01-10T11:42:21;32.43;;;18.97;;
20861;SDS011;10591;52.532;13.348;2024-01-10T11:44:53;33.17;;;18.43;;
20861;SDS011;10591;52.532;13.348;2024-01-10T11:47:24;38.17;;;19.50;;
20861;SDS011;10591;52.532;13.348;2024-01-10T11:49:57;39.60;;;19.37;;
20861;SDS011;10591;52.532;13.348;2024-01-10T11:52:32;31.80;;;19.27;;
20861;SDS011;10591;52.532;13.348;2024-01-10T11:55:05;35.17;;;19.40;;
20861;SDS011;10591;52.532;13.348;2024-01-10T11:57:38;34.07;;;18.37;;
20861;SDS011;10591;52.532;13.348;2024-01-10T12:00:10;34.47;;;18.77;;
20861;SDS011;10591;52.532;13.348;2024-01-10T12:02:44;28.93;;;17.53;;
20861;SDS011;10591;52.532;13.348;2024-01-10T12:05:17;33.00;;;17.43;;
20861;SDS011;10591;52.532;13.348;2024-01-10T12:07:50;33.00;;;17.50;;
20861;SDS011;10591;52.532;13.348;2024-01-10T12:10:22;30.30;;;16.97;;
20861;SDS011;10591;52.532;13.348;2024-01-10T12:12:56;31.37;;;17.23;;
20861;SDS011;10591;52.532;13.348;2024-01-10T12:15:29;32.83;;;17.73;;
20861;SDS011;10591;52.532;13.348;2024-01-10T12:18:00;33.37;;;18.67;;
20861;SDS011;10591;52.532;13.348;2024-01-10T12:20:33;35.73;;;17.40;;
20861;SDS011;10591;52.532;13.348;2024-01-10T12:23:04;37.73;;;19.50;;
20861;SDS011;10591;52.532;13.348;2024-01-10T12:25:35;35.50;;;21.00;;
20861;SDS011;10591;52.532;13.348;2024-01-10T12:28:07;40.40;;;21.90;;
20861;SDS011;10591;52.532;13.348;2024-01-10T12:30:37;38.17;;;21.07;;
20861;SDS011;10591;52.532;13.348;2024-01-10T12:33:09;40.07;;;23.13;;
20861;SDS011;10591;52.532;13.348;2024-01-10T12:35:41;39.67;;;22.57;;
20861;SDS011;10591;52.532;13.348;2024-01-10T12:38:12;41.30;;;23.93;;
20861;SDS011;10591;52.532;13.348;2024-01-10T12:40:42;43.87;;;23.67;;
20861;SDS011;10591;52.532;13.348;2024-01-10T12:43:13;40.53;;;22.13;;
20861;SDS011;10591;52.532;13.348;2024-01-10T12:45:44;35.73;;;21.00;;
20861;SDS011;10591;52.532;13.348;2024-01-10T12:48:15;37.17;;;21.70;;
20861;SDS011;10591;52.532;13.348;2024-01-10T12:50:46;36.90;;;21.23;;
20861;SDS011;10591;52.532;13.348;2024-01-10T12:53:16;37.63;;;22.37;;
20861;SDS011;10591;52.532;13.348;2024-01-10T12:55:47;40.67;;;23.23;;
20861;SDS011;10591;52.532;13.348;2024-01-10T12:58:19;37.10;;;20.07;;
20861;SDS011;10591;52.532;13.348;2024-01-10T13:00:50;40.97;;;21.37;;
20861;SDS011;10591;52.532;13.348;2024-01-10T13:03:20;35.77;;;20.47;;
20861;SDS011;10591;52.532;13.348;2024-01-10T13:05:53;40.40;;;21.30;;
20861;SDS011;10591;52.532;13.348;2024-01-10T13:08:24;37.57;;;21.03;;
20861;SDS011;10591;52.532;13.348;2024-01-10T13:10:55;42.57;;;22.97;;
20861;SDS011;10591;52.532;13.348;2024-01-10T13:13:25;36.03;;;21.83;;
20861;SDS011;10591;52.532;13.348;2024-01-10T13:15:58;39.10;;;21.67;;
20861;SDS011;10591;52.532;13.348;2024-01-10T13:18:29;36.63;;;20.63;;
20861;SDS011;10591;52.532;13.348;2024-01-10T13:21:00;35.97;;;20.70;;
20861;SDS011;10591;52.532;13.348;2024-01-10T13:23:33;35.93;;;20.60;;
20861;SDS011;10591;52.532;13.348;2024-01-10T13:26:05;35.07;;;20.47;;
20861;SDS011;10591;52.532;13.348;2024-01-10T13:28:36;36.57;;;20.70;;
20861;SDS011;10591;52.532;13.348;2024-01-10T13:31:06;35.63;;;20.23;;
20861;SDS011;10591;52.532;13.348;2024-01-10T13:33:38;35.80;;;20.57;;
20861;SDS011;10591;52.532;13.348;2024-01-10T13:36:10;38.10;;;20.53;;
20861;SDS011;10591;52.532;13.348;2024-01-10T13:38:41;39.00;;;20.13;;
20861;SDS011;10591;52.532;13.348;2024-01-10T13:41:14;39.87;;;21.50;;
20861;SDS011;10591;52.532;13.348;2024-01-10T13:43:44;38.13;;;20.33;;
20861;SDS011;10591;52.532;13.348;2024-01-10T13:46:15;36.73;;;20.77;;
20861;SDS011;10591;52.532;13.348;2024-01-10T13:48:46;38.03;;;21.00;;
20861;SDS011;10591;52.532;13.348;2024-01-10T13:51:16;38.40;;;22.00;;
20861;SDS011;10591;52.532;13.348;2024-01-10T13:53:47;38.23;;;20.87;;
20861;SDS011;10591;52.532;13.348;2024-01-10T13:56:18;35.73;;;20.97;;
20861;SDS011;10591;52.532;13.348;2024-01-10T13:58:50;30.13;;;18.50;;
20861;SDS011;10591;52.532;13.348;2024-01-10T14:01:21;34.93;;;19.17;;
20861;SDS011;10591;52.532;13.348;2024-01-10T14:03:52;58.20;;;48.50;;
20861;SDS011;10591;52.532;13.348;2024-01-10T14:06:23;35.20;;;19.30;;
20861;SDS011;10591;52.532;13.348;2024-01-10T14:08:53;35.40;;;19.07;;
20861;SDS011;10591;52.532;13.348;2024-01-10T14:11:24;33.07;;;18.43;;
20861;SDS011;10591;52.532;13.348;2024-01-10T14:13:56;38.80;;;18.80;;
20861;SDS011;10591;52.532;13.348;2024-01-10T14:16:28;32.70;;;18.20;;
20861;SDS011;10591;52.532;13.348;2024-01-10T14:19:00;31.40;;;18.57;;
20861;SDS011;10591;52.532;13.348;2024-01-10T14:21:31;35.27;;;18.97;;
20861;SDS011;10591;52.532;13.348;2024-01-10T14:24:01;30.50;;;17.03;;
20861;SDS011;10591;52.532;13.348;2024-01-10T14:26:32;29.73;;;16.87;;
20861;SDS011;10591;52.532;13.348;2024-01-10T14:29:04;30.10;;;16.47;;
20861;SDS011;10591;52.532;13.348;2024-01-10T14:31:34;29.03;;;16.33;;
20861;SDS011;10591;52.532;13.348;2024-01-10T14:34:07;30.33;;;15.70;;
20861;SDS011;10591;52.532;13.348;2024-01-10T14:36:38;35.67;;;17.37;;
20861;SDS011;10591;52.532;13.348;2024-01-10T14:39:09;30.10;;;17.80;;
20861;SDS011;10591;52.532;13.348;2024-01-10T14:41:43;31.50;;;17.37;;
20861;SDS011;10591;52.532;13.348;2024-01-10T14:44:15;33.10;;;18.67;;